Hachinohemaru — JE3089 — position and weather

sailwx.info

Track history (hours):
 
Tides and Currents Weather Stations Pressure Air Temp Water Temp Dewpoint Dewpoint Depression Visibility Wind Speed Wind Dir Waves Ship Positions

Hachinohemaru

Last reported at 2014-Jul-16 07:29 UTC. Time now 2014-Jul-22 07:26 UTC.
Position N 33°12' E 134°26'.

Length 168 m; draft 5.6 m.

Type: Cargo ship. MMSI: 431700018.

Date/timePositionNaut miles runAvg speedWind from/ knotsBaromVisibWave heightAir tempDewpointWater temp
2014-Jul-16 07:29N 33°12' E 134°26'21213.1
2014-Jul-15 15:15N 34°24' E 138°26'5113.7
2014-Jul-15 11:33N 34°38' E 139°26'1414.0
2014-Jul-15 10:33N 34°42' E 139°41'1313.1
2014-Jul-15 09:34N 34°48' E 139°56'1212.5
2014-Jul-15 08:34N 34°55' E 140°08'1312.4
2014-Jul-15 07:31N 35°02' E 140°22'1313.0
2014-Jul-15 06:33N 35°10' E 140°33'1414.3
2014-Jul-15 05:33N 35°22' E 140°42'1414.2
2014-Jul-15 04:33N 35°34' E 140°51'1313.1
2014-Jul-15 03:33N 35°47' E 140°56'1513.6
2014-Jul-15 02:29N 35°58' E 140°45'4 0.3
2014-Jul-14 13:07N 35°55' E 140°41'  
2014-Jul-11 23:32N 36°39' E 141°02'1613.7
2014-Jul-11 22:23N 36°24' E 140°55'1113.6
2014-Jul-11 21:33N 36°14' E 140°49'1414.1
2014-Jul-11 20:33N 36°01' E 140°44'6 5.0
2014-Jul-11 19:26N 35°56' E 140°41'0 0.0
2014-Jul-11 18:23N 35°56' E 140°41'0 0.0
2014-Jul-11 17:29N 35°56' E 140°41'0 0.0
2014-Jul-11 16:08N 35°56' E 140°41'0 0.0
2014-Jul-11 12:23N 35°56' E 140°41'0 0.0
2014-Jul-11 11:29N 35°56' E 140°41'0 0.0
2014-Jul-11 10:20N 35°56' E 140°41'0 0.0
2014-Jul-11 09:32N 35°56' E 140°41'0 0.0
2014-Jul-11 08:32N 35°56' E 140°41'  
2014-Jul-08 16:11N 36°59' E 141°10'1014.0
2014-Jul-08 15:28N 36°49' E 141°05'1514.1
2014-Jul-08 14:26N 36°36' E 140°59'1314.2
2014-Jul-08 13:34N 36°24' E 140°55'1414.1
2014-Jul-08 12:33N 36°10' E 140°49'1414.0
2014-Jul-08 11:33N 35°57' E 140°43'2 1.7
2014-Jul-08 10:30N 35°56' E 140°41'0 0.0
2014-Jul-08 01:30N 35°56' E 140°41'1 0.2
2014-Jul-07 22:33N 35°56' E 140°42'7 6.7
2014-Jul-07 21:33N 35°57' E 140°50'1312.7
2014-Jul-07 20:33N 35°45' E 140°58'1212.0
2014-Jul-07 19:32N 35°34' E 140°54'1313.1
2014-Jul-07 18:33N 35°23' E 140°44'1414.2
2014-Jul-07 17:33N 35°12' E 140°34'1514.9
2014-Jul-07 16:32N 35°01' E 140°21'1414.6
2014-Jul-07 15:33N 34°53' E 140°06'1614.4
2014-Jul-07 14:25N 34°45' E 139°49'  
Track history (hours):
 
Tides and Currents Weather Stations Pressure Air Temp Water Temp Dewpoint Dewpoint Depression Visibility Wind Speed Wind Dir Waves Ship Positions

Hachinohemaru

Last reported at 2014-Jul-16 07:29 UTC. Time now 2014-Jul-22 07:26 UTC.
Position N 33°12' E 134°26'.

Length 168 m; draft 5.6 m.

Type: Cargo ship. MMSI: 431700018.

Date/timePositionNaut miles runAvg speedWind from/ knotsBaromVisibWave heightAir tempDewpointWater temp
2014-Jul-16 07:29N 33°12' E 134°26'21213.1
2014-Jul-15 15:15N 34°24' E 138°26'5113.7
2014-Jul-15 11:33N 34°38' E 139°26'1414.0
2014-Jul-15 10:33N 34°42' E 139°41'1313.1
2014-Jul-15 09:34N 34°48' E 139°56'1212.5
2014-Jul-15 08:34N 34°55' E 140°08'1312.4
2014-Jul-15 07:31N 35°02' E 140°22'1313.0
2014-Jul-15 06:33N 35°10' E 140°33'1414.3
2014-Jul-15 05:33N 35°22' E 140°42'1414.2
2014-Jul-15 04:33N 35°34' E 140°51'1313.1
2014-Jul-15 03:33N 35°47' E 140°56'1513.6
2014-Jul-15 02:29N 35°58' E 140°45'4 0.3
2014-Jul-14 13:07N 35°55' E 140°41'  
2014-Jul-11 23:32N 36°39' E 141°02'1613.7
2014-Jul-11 22:23N 36°24' E 140°55'1113.6
2014-Jul-11 21:33N 36°14' E 140°49'1414.1
2014-Jul-11 20:33N 36°01' E 140°44'6 5.0
2014-Jul-11 19:26N 35°56' E 140°41'0 0.0
2014-Jul-11 18:23N 35°56' E 140°41'0 0.0
2014-Jul-11 17:29N 35°56' E 140°41'0 0.0
2014-Jul-11 16:08N 35°56' E 140°41'0 0.0
2014-Jul-11 12:23N 35°56' E 140°41'0 0.0
2014-Jul-11 11:29N 35°56' E 140°41'0 0.0
2014-Jul-11 10:20N 35°56' E 140°41'0 0.0
2014-Jul-11 09:32N 35°56' E 140°41'0 0.0
2014-Jul-11 08:32N 35°56' E 140°41'  
2014-Jul-08 16:11N 36°59' E 141°10'1014.0
2014-Jul-08 15:28N 36°49' E 141°05'1514.1
2014-Jul-08 14:26N 36°36' E 140°59'1314.2
2014-Jul-08 13:34N 36°24' E 140°55'1414.1
2014-Jul-08 12:33N 36°10' E 140°49'1414.0
2014-Jul-08 11:33N 35°57' E 140°43'2 1.7
2014-Jul-08 10:30N 35°56' E 140°41'0 0.0
2014-Jul-08 01:30N 35°56' E 140°41'1 0.2
2014-Jul-07 22:33N 35°56' E 140°42'7 6.7
2014-Jul-07 21:33N 35°57' E 140°50'1312.7
2014-Jul-07 20:33N 35°45' E 140°58'1212.0
2014-Jul-07 19:32N 35°34' E 140°54'1313.1
2014-Jul-07 18:33N 35°23' E 140°44'1414.2
2014-Jul-07 17:33N 35°12' E 140°34'1514.9
2014-Jul-07 16:32N 35°01' E 140°21'1414.6
2014-Jul-07 15:33N 34°53' E 140°06'1614.4
2014-Jul-07 14:25N 34°45' E 139°49'  

Dump ship's entire track history